Time;durP1;ratioP1;P1;durP2;ratioP2;P2;SDS_P1;SDS_P2;PMS_P1;PMS_P2;Temp;Humidity;BMP_temperature;BMP_pressure;BME280_temperature;BME280_humidity;BME280_pressure;Samples;Min_cycle;Max_cycle;Signal;HPM_P1;HPM_P2
2022/10/30 00:01:32;;;;;;;56.90;31.60;;;;;;;11.40;80.04;99325.17;85923;1292;25298;-77
2022/10/30 00:03:34;;;;;;;53.90;31.50;;;;;;;11.38;80.01;99326.52;85873;1297;98421;-76
2022/10/30 00:05:43;;;;;;;48.80;31.30;;;;;;;11.36;80.21;99323.60;86145;1292;24289;-76
2022/10/30 00:07:45;;;;;;;44.20;30.30;;;;;;;11.34;80.13;99319.30;86517;1290;25263;-76
2022/10/30 00:09:47;;;;;;;51.20;28.20;;;;;;;11.32;80.15;99325.71;85873;1289;99733;-76
2022/10/30 00:11:48;;;;;;;41.00;29.10;;;;;;;11.31;80.25;99323.48;85815;1290;24279;-76
2022/10/30 00:13:50;;;;;;;47.40;29.50;;;;;;;11.29;80.19;99326.02;85985;1291;22516;-76
2022/10/30 00:15:53;;;;;;;50.40;29.90;;;;;;;11.28;80.36;99327.85;86043;1290;98891;-75
2022/10/30 00:17:55;;;;;;;51.30;30.60;;;;;;;11.27;80.22;99328.08;86267;1291;22547;-76
2022/10/30 00:20:14;;;;;;;45.60;29.60;;;;;;;11.25;80.29;99326.56;86104;1289;22492;-77
2022/10/30 00:22:35;;;;;;;45.90;28.30;;;;;;;11.15;80.34;99315.21;85975;1296;24251;-76
2022/10/30 00:24:36;;;;;;;44.10;27.50;;;;;;;11.22;80.35;99324.96;85776;1299;22507;-76
2022/10/30 00:26:38;;;;;;;44.80;29.40;;;;;;;11.20;80.37;99325.38;85882;1291;98595;-76
2022/10/30 00:28:57;;;;;;;48.80;28.30;;;;;;;11.18;80.25;99319.71;85994;1287;25384;-76
2022/10/30 00:31:02;;;;;;;48.80;28.10;;;;;;;11.18;80.36;99324.62;85899;1291;22501;-76
2022/10/30 00:33:05;;;;;;;41.10;28.60;;;;;;;11.16;80.36;99326.98;85937;1292;99498;-76
2022/10/30 00:35:09;;;;;;;47.10;27.20;;;;;;;11.15;80.44;99328.08;85903;1292;22492;-76
2022/10/30 00:37:28;;;;;;;43.60;27.20;;;;;;;11.14;80.57;99329.70;85864;1283;24231;-76
2022/10/30 00:39:30;;;;;;;51.30;28.70;;;;;;;11.15;80.64;99329.50;85875;1291;99380;-76
2022/10/30 00:41:32;;;;;;;41.90;28.50;;;;;;;11.14;80.46;99329.71;85946;1289;22474;-76
2022/10/30 00:43:39;;;;;;;44.30;27.30;;;;;;;11.14;80.64;99327.05;86106;1287;22484;-76
2022/10/30 00:45:41;;;;;;;43.40;27.70;;;;;;;11.15;80.66;99331.60;85968;1291;99438;-77
2022/10/30 00:47:49;;;;;;;41.50;28.00;;;;;;;11.16;80.70;99327.34;85803;1291;22649;-77
2022/10/30 00:50:11;;;;;;;42.60;28.60;;;;;;;11.18;80.64;99326.55;86052;1286;23375;-77
2022/10/30 00:52:35;;;;;;;46.70;26.80;;;;;;;11.13;80.75;99311.63;85944;1290;22485;-76
2022/10/30 00:54:56;;;;;;;43.80;25.80;;;;;;;11.20;80.79;99318.90;85934;1283;22491;-76
2022/10/30 00:57:00;;;;;;;40.30;26.10;;;;;;;11.21;80.85;99318.45;85858;1283;99474;-76
2022/10/30 00:59:09;;;;;;;39.00;26.50;;;;;;;11.24;80.81;99319.23;86476;1291;25313;-76
2022/10/30 01:01:16;;;;;;;39.20;24.30;;;;;;;11.26;80.87;99313.53;86077;1289;22487;-76
2022/10/30 01:03:38;;;;;;;35.00;24.40;;;;;;;11.28;80.91;99310.43;85833;1291;99315;-76
2022/10/30 01:05:45;;;;;;;41.50;25.80;;;;;;;11.31;80.81;99305.20;85953;1290;23326;-76
2022/10/30 01:07:47;;;;;;;38.20;25.20;;;;;;;11.33;80.79;99299.48;85984;1283;22623;-76
2022/10/30 01:10:08;;;;;;;37.90;25.10;;;;;;;11.35;80.80;99291.83;86026;1292;98847;-76
2022/10/30 01:12:10;;;;;;;40.90;25.20;;;;;;;11.36;80.99;99293.02;85902;1292;22802;-76
2022/10/30 01:14:30;;;;;;;42.30;26.70;;;;;;;11.38;80.93;99301.87;86164;1289;25250;-76
2022/10/30 01:17:15;;;;;;;41.70;25.70;;;;;;;11.39;80.91;99304.29;86288;1290;22465;-76
2022/10/30 01:19:43;;;;;;;37.80;24.60;;;;;;;11.41;80.92;99306.13;86149;1283;22545;-76
2022/10/30 01:22:06;;;;;;;45.40;25.40;;;;;;;11.43;81.04;99313.27;85988;1298;100208;-77
2022/10/30 01:24:20;;;;;;;36.10;24.00;;;;;;;11.45;80.96;99317.39;85997;1289;22525;-77
2022/10/30 01:26:37;;;;;;;44.00;24.80;;;;;;;11.47;80.94;99309.20;86062;1291;22532;-77
2022/10/30 01:28:51;;;;;;;44.50;25.40;;;;;;;11.48;80.99;99301.06;86047;1290;27186;-77
2022/10/30 01:31:18;;;;;;;45.70;26.40;;;;;;;11.49;80.93;99298.21;85955;1283;23058;-76
2022/10/30 01:33:58;;;;;;;40.10;26.00;;;;;;;11.49;81.06;99296.27;85836;1290;98598;-76
2022/10/30 01:36:24;;;;;;;51.30;26.80;;;;;;;11.49;80.96;99294.50;86061;1296;24491;-76
2022/10/30 01:38:43;;;;;;;49.50;27.60;;;;;;;11.49;80.91;99295.59;85934;1290;24009;-75
2022/10/30 01:40:45;;;;;;;42.40;27.40;;;;;;;11.48;81.01;99302.10;85950;1296;22494;-77
2022/10/30 01:42:58;;;;;;;46.90;27.00;;;;;;;11.48;81.12;99297.73;86049;1287;23229;-77
2022/10/30 01:45:00;;;;;;;42.50;26.80;;;;;;;11.45;80.95;99289.74;85771;1289;98762;-77
2022/10/30 01:47:16;;;;;;;42.80;27.70;;;;;;;11.45;81.01;99287.67;85977;1290;22509;-76
2022/10/30 01:49:42;;;;;;;42.50;27.00;;;;;;;11.42;81.09;99293.08;86056;1290;22486;-76
2022/10/30 01:52:20;;;;;;;43.30;26.60;;;;;;;11.39;81.04;99294.45;85777;1287;98048;-76
2022/10/30 01:54:44;;;;;;;40.60;26.30;;;;;;;11.35;81.05;99289.88;85771;1290;22454;-77
2022/10/30 01:57:08;;;;;;;42.70;26.70;;;;;;;11.32;81.09;99300.19;85865;1290;99699;-76
2022/10/30 01:59:26;;;;;;;39.30;27.60;;;;;;;11.32;81.07;99305.16;85891;1291;25545;-76
2022/10/30 02:01:32;;;;;;;38.90;26.80;;;;;;;11.31;81.20;99306.79;85800;1291;22517;-76
2022/10/30 02:03:51;;;;;;;46.50;28.70;;;;;;;11.29;81.02;99306.51;86076;1289;99297;-76
2022/10/30 02:05:53;;;;;;;49.90;29.50;;;;;;;11.27;81.21;99299.91;85700;1287;23739;-76
2022/10/30 02:07:55;;;;;;;54.00;31.80;;;;;;;11.26;81.23;99302.77;85613;1285;25374;-76
2022/10/30 02:09:56;;;;;;;53.00;30.00;;;;;;;11.24;81.18;99301.81;85596;1289;102571;-77
2022/10/30 02:11:59;;;;;;;46.60;29.80;;;;;;;11.21;81.12;99290.67;85692;1286;24294;-77
2022/10/30 02:14:06;;;;;;;45.80;29.00;;;;;;;11.18;81.19;99282.41;85899;1284;24233;-76
2022/10/30 02:16:26;;;;;;;57.50;31.20;;;;;;;11.13;81.15;99280.34;85780;1289;99785;-77
2022/10/30 02:18:28;;;;;;;50.90;29.80;;;;;;;11.11;81.21;99280.43;85878;1291;25280;-77
2022/10/30 02:20:31;;;;;;;54.90;30.60;;;;;;;11.06;81.25;99278.68;85744;1289;22486;-77
2022/10/30 02:22:50;;;;;;;54.20;29.40;;;;;;;11.05;81.27;99275.77;85721;1290;22481;-76
2022/10/30 02:24:52;;;;;;;52.10;29.80;;;;;;;11.02;81.30;99279.05;85711;1291;23370;-77
2022/10/30 02:26:53;;;;;;;51.20;30.60;;;;;;;11.00;81.22;99281.45;85627;1286;99581;-77
2022/10/30 02:28:55;;;;;;;49.10;28.80;;;;;;;10.96;81.32;99295.67;85714;1291;23857;-76
2022/10/30 02:30:58;;;;;;;48.20;31.50;;;;;;;10.93;81.33;99309.36;85722;1289;22743;-76
2022/10/30 02:33:01;;;;;;;60.40;31.90;;;;;;;10.90;81.25;99315.98;85616;1291;98867;-76
2022/10/30 02:35:03;;;;;;;53.20;31.60;;;;;;;10.87;81.30;99316.64;85728;1290;24503;-76
2022/10/30 02:37:05;;;;;;;48.20;32.20;;;;;;;10.85;81.41;99315.50;86047;1289;25987;-76
2022/10/30 02:39:07;;;;;;;56.40;32.80;;;;;;;10.83;81.41;99311.58;85589;1286;99417;-76
2022/10/30 02:41:26;;;;;;;50.40;32.30;;;;;;;10.80;81.46;99311.33;85753;1290;22618;-76
2022/10/30 02:43:28;;;;;;;46.50;30.00;;;;;;;10.79;81.45;99305.96;85734;1290;22492;-76
2022/10/30 02:45:30;;;;;;;50.90;31.70;;;;;;;10.76;81.49;99303.80;85585;1289;100285;-76
2022/10/30 02:47:32;;;;;;;49.70;32.90;;;;;;;10.73;81.51;99300.94;85798;1290;22574;-77
2022/10/30 02:49:34;;;;;;;55.20;32.90;;;;;;;10.71;81.41;99302.06;85868;1291;22579;-75
2022/10/30 02:51:53;;;;;;;52.20;32.90;;;;;;;10.67;81.52;99302.74;85801;1289;99416;-76
2022/10/30 02:53:55;;;;;;;55.00;33.10;;;;;;;10.65;81.43;99309.87;85833;1290;22484;-76
2022/10/30 02:56:02;;;;;;;55.20;33.50;;;;;;;10.62;81.52;99308.73;85648;1283;22584;-76
2022/10/30 02:58:04;;;;;;;50.50;32.30;;;;;;;10.60;81.58;99307.44;85536;1293;98151;-75
2022/10/30 03:00:23;;;;;;;55.40;33.20;;;;;;;10.57;81.62;99311.08;85849;1284;25264;-76
2022/10/30 03:02:24;;;;;;;54.70;34.40;;;;;;;10.56;81.53;99317.64;85714;1291;24293;-75
2022/10/30 03:04:26;;;;;;;55.40;33.30;;;;;;;10.54;81.65;99312.96;85709;1289;99689;-76
2022/10/30 03:06:28;;;;;;;51.70;32.70;;;;;;;10.54;81.73;99304.19;85806;1284;22522;-76
2022/10/30 03:08:29;;;;;;;53.50;32.20;;;;;;;10.53;81.76;99296.48;85694;1289;22704;-77
2022/10/30 03:10:49;;;;;;;52.40;31.00;;;;;;;10.52;81.81;99292.88;85823;1283;22491;-77
2022/10/30 03:12:50;;;;;;;51.10;32.40;;;;;;;10.50;81.71;99287.52;85690;1283;24278;-77
2022/10/30 03:14:52;;;;;;;52.30;30.70;;;;;;;10.48;81.82;99284.76;85693;1291;98233;-77
2022/10/30 03:16:53;;;;;;;50.30;30.30;;;;;;;10.47;81.84;99274.61;85723;1293;22496;-77
2022/10/30 03:18:56;;;;;;;55.00;32.80;;;;;;;10.46;81.80;99272.55;85671;1284;25317;-76
2022/10/30 03:21:03;;;;;;;46.40;31.10;;;;;;;10.45;81.88;99268.92;85768;1290;99504;-77
2022/10/30 03:23:21;;;;;;;48.80;30.30;;;;;;;10.44;81.91;99276.88;85916;1290;22517;-77
2022/10/30 03:25:23;;;;;;;57.80;32.40;;;;;;;10.43;81.87;99284.65;85693;1291;22541;-76
2022/10/30 03:27:42;;;;;;;45.60;31.90;;;;;;;10.42;81.99;99284.68;85748;1289;99228;-75
2022/10/30 03:30:02;;;;;;;46.70;31.60;;;;;;;10.43;81.95;99284.13;85631;1286;22536;-76
2022/10/30 03:32:07;;;;;;;50.10;32.70;;;;;;;10.44;82.02;99284.79;85911;1289;25283;-76
2022/10/30 03:34:08;;;;;;;48.30;33.40;;;;;;;10.44;82.25;99284.23;85776;1290;98489;-76
2022/10/30 03:36:12;;;;;;;58.20;33.60;;;;;;;10.45;82.19;99281.39;85858;1283;25499;-76
2022/10/30 03:38:14;;;;;;;52.90;34.60;;;;;;;10.47;82.19;99287.64;85737;1290;24264;-76
2022/10/30 03:40:15;;;;;;;50.60;32.60;;;;;;;10.47;82.17;99284.80;85753;1292;98812;-77
2022/10/30 03:42:17;;;;;;;53.80;32.90;;;;;;;10.49;82.23;99282.98;85804;1284;22494;-77
2022/10/30 03:44:18;;;;;;;43.90;30.90;;;;;;;10.50;82.22;99278.89;85868;1290;22490;-76
2022/10/30 03:46:20;;;;;;;51.70;31.70;;;;;;;10.49;82.26;99276.45;85764;1284;99698;-76
2022/10/30 03:48:24;;;;;;;51.40;31.40;;;;;;;10.50;82.19;99277.11;85711;1292;22445;-76
2022/10/30 03:50:26;;;;;;;47.20;30.60;;;;;;;10.50;82.29;99272.89;85794;1293;22657;-76
2022/10/30 03:52:28;;;;;;;46.60;30.30;;;;;;;10.50;82.25;99271.84;85744;1287;98334;-76
2022/10/30 03:54:30;;;;;;;44.50;29.00;;;;;;;10.52;82.22;99281.27;85699;1291;22489;-76
2022/10/30 03:56:31;;;;;;;43.40;28.00;;;;;;;10.53;82.30;99283.52;85797;1291;22549;-76
2022/10/30 03:58:33;;;;;;;45.20;28.60;;;;;;;10.53;82.31;99284.72;85739;1282;99653;-76
2022/10/30 04:00:35;;;;;;;45.80;28.90;;;;;;;10.54;82.34;99285.22;85890;1284;22509;-77
2022/10/30 04:02:37;;;;;;;41.00;28.10;;;;;;;10.53;82.44;99283.84;85768;1286;26538;-76
2022/10/30 04:04:38;;;;;;;44.10;28.70;;;;;;;10.54;82.26;99283.43;85603;1287;98298;-75
2022/10/30 04:06:40;;;;;;;48.80;29.40;;;;;;;10.54;82.41;99279.61;85829;1289;28117;-76
2022/10/30 04:08:41;;;;;;;52.00;30.90;;;;;;;10.53;82.37;99279.27;85853;1291;22494;-76
2022/10/30 04:10:46;;;;;;;46.10;30.60;;;;;;;10.53;82.31;99280.35;85799;1283;100876;-76
2022/10/30 04:12:47;;;;;;;50.90;32.70;;;;;;;10.52;82.33;99281.08;85679;1294;23876;-75
2022/10/30 04:14:49;;;;;;;50.50;32.90;;;;;;;10.52;82.39;99283.70;85831;1283;22489;-76
2022/10/30 04:16:51;;;;;;;52.70;32.10;;;;;;;10.52;82.46;99282.16;85949;1283;22639;-76
2022/10/30 04:18:52;;;;;;;44.40;31.20;;;;;;;10.51;82.49;99279.20;85992;1282;22857;-75
2022/10/30 04:20:54;;;;;;;56.60;34.90;;;;;;;10.50;82.42;99276.08;85834;1289;99810;-76
2022/10/30 04:23:01;;;;;;;51.80;32.80;;;;;;;10.49;82.52;99272.59;85733;1299;24255;-76
2022/10/30 04:25:03;;;;;;;47.10;32.90;;;;;;;10.49;82.48;99270.34;85787;1291;25395;-76
2022/10/30 04:27:05;;;;;;;51.40;33.00;;;;;;;10.48;82.53;99272.31;85646;1293;99459;-77
2022/10/30 04:29:07;;;;;;;51.80;33.70;;;;;;;10.47;82.49;99274.61;85741;1288;23721;-76
2022/10/30 04:31:08;;;;;;;54.00;32.80;;;;;;;10.47;82.52;99275.35;85798;1290;22523;-76
2022/10/30 04:33:28;;;;;;;46.90;33.00;;;;;;;10.45;82.56;99279.98;85716;1290;99361;-76
2022/10/30 04:35:32;;;;;;;48.40;33.80;;;;;;;10.44;82.53;99279.85;85696;1291;22519;-75
2022/10/30 04:37:34;;;;;;;47.60;32.40;;;;;;;10.42;82.56;99281.49;85853;1291;23424;-75
2022/10/30 04:39:36;;;;;;;49.70;32.10;;;;;;;10.42;82.58;99283.65;85865;1293;98321;-75
2022/10/30 04:41:37;;;;;;;45.00;30.70;;;;;;;10.40;82.52;99284.77;85917;1287;22533;-76
2022/10/30 04:43:39;;;;;;;44.70;31.20;;;;;;;10.38;82.57;99274.30;85785;1291;22722;-76
2022/10/30 04:45:41;;;;;;;53.00;30.40;;;;;;;10.36;82.65;99274.54;85662;1294;98475;-76
2022/10/30 04:47:44;;;;;;;46.80;31.60;;;;;;;10.35;82.59;99271.27;86147;1291;22487;-76
2022/10/30 04:49:46;;;;;;;45.90;32.00;;;;;;;10.33;82.58;99270.25;85784;1291;24223;-76
2022/10/30 04:51:47;;;;;;;47.60;31.00;;;;;;;10.32;82.55;99274.86;85888;1290;99316;-76
2022/10/30 04:53:49;;;;;;;47.60;32.20;;;;;;;10.30;82.65;99278.29;85923;1287;25371;-76
2022/10/30 04:55:54;;;;;;;40.50;31.20;;;;;;;10.28;82.50;99279.09;85762;1283;22543;-76
2022/10/30 04:57:57;;;;;;;48.10;31.60;;;;;;;10.25;82.73;99279.36;85883;1283;98109;-75
2022/10/30 04:59:59;;;;;;;52.80;30.90;;;;;;;10.23;82.48;99283.86;85840;1292;25342;-76
2022/10/30 05:02:00;;;;;;;47.70;31.20;;;;;;;10.20;82.60;99286.94;85935;1283;24320;-76
2022/10/30 05:04:02;;;;;;;48.30;29.90;;;;;;;10.19;82.54;99286.65;85738;1290;99563;-76
2022/10/30 05:06:18;;;;;;;45.10;31.60;;;;;;;10.16;82.60;99287.48;85806;1291;25276;-76
2022/10/30 05:08:20;;;;;;;47.20;32.20;;;;;;;10.15;82.66;99289.08;85922;1289;24207;-76
2022/10/30 05:10:22;;;;;;;44.20;30.80;;;;;;;10.14;82.78;99285.11;85777;1291;99200;-76
2022/10/30 05:12:23;;;;;;;60.90;32.10;;;;;;;10.14;82.69;99284.77;85880;1291;22512;-76
2022/10/30 05:14:28;;;;;;;49.00;30.40;;;;;;;10.12;82.69;99285.36;85617;1286;22542;-76
2022/10/30 05:16:48;;;;;;;41.10;30.20;;;;;;;10.09;82.62;99284.77;85655;1294;97969;-75
2022/10/30 05:18:51;;;;;;;47.00;31.50;;;;;;;10.08;82.66;99289.94;85801;1290;25339;-76
2022/10/30 05:20:53;;;;;;;47.00;30.40;;;;;;;10.05;82.70;99285.46;85692;1286;99526;-76
2022/10/30 05:22:57;;;;;;;54.00;32.50;;;;;;;10.03;82.68;99288.70;85794;1283;22532;-75
2022/10/30 05:24:58;;;;;;;44.60;31.90;;;;;;;10.01;82.70;99292.46;85904;1291;22911;-75
2022/10/30 05:27:00;;;;;;;56.00;34.50;;;;;;;10.00;82.81;99294.80;85840;1284;99619;-76
2022/10/30 05:29:02;;;;;;;53.40;34.20;;;;;;;9.98;82.90;99292.08;85748;1285;24255;-79
2022/10/30 05:31:04;;;;;;;57.50;34.20;;;;;;;9.97;82.61;99288.61;85892;1284;22499;-78
2022/10/30 05:33:08;;;;;;;47.60;35.00;;;;;;;9.96;82.84;99288.81;85826;1287;99564;-78
2022/10/30 05:35:09;;;;;;;53.70;35.50;;;;;;;9.95;82.79;99281.86;85730;1294;22854;-79
2022/10/30 05:37:11;;;;;;;50.90;34.90;;;;;;;9.94;82.92;99285.41;85683;1291;24550;-78
2022/10/30 05:39:13;;;;;;;48.80;35.10;;;;;;;9.93;82.89;99279.66;85806;1290;99019;-78
2022/10/30 05:41:14;;;;;;;59.30;34.40;;;;;;;9.92;83.04;99277.57;85850;1290;24246;-77
2022/10/30 05:43:34;;;;;;;54.50;34.10;;;;;;;9.92;82.87;99277.58;85980;1289;22511;-77
2022/10/30 05:45:35;;;;;;;49.40;33.80;;;;;;;9.93;83.01;99279.66;85880;1284;100075;-78
2022/10/30 05:47:37;;;;;;;48.30;33.70;;;;;;;9.93;83.15;99283.51;85758;1291;22525;-78
2022/10/30 05:49:38;;;;;;;56.30;35.70;;;;;;;9.93;83.12;99284.38;85902;1283;22459;-78
2022/10/30 05:51:40;;;;;;;50.00;34.10;;;;;;;9.94;83.04;99294.36;85807;1289;99577;-77
2022/10/30 05:53:41;;;;;;;49.20;32.80;;;;;;;9.96;83.06;99296.37;85836;1284;22637;-77
2022/10/30 05:55:43;;;;;;;53.60;32.50;;;;;;;9.97;83.08;99299.84;85759;1283;22936;-77
2022/10/30 05:57:44;;;;;;;57.40;34.50;;;;;;;9.98;83.07;99307.16;85726;1291;98106;-77
2022/10/30 05:59:46;;;;;;;59.20;33.40;;;;;;;9.99;82.96;99312.92;85744;1289;23631;-77
2022/10/30 06:01:48;;;;;;;47.60;33.10;;;;;;;9.99;83.22;99310.98;85760;1283;22524;-78
2022/10/30 06:03:49;;;;;;;56.70;33.90;;;;;;;10.01;83.31;99309.00;85515;1287;98435;-77
2022/10/30 06:05:51;;;;;;;51.20;33.20;;;;;;;10.02;83.19;99308.77;85914;1290;25374;-76
2022/10/30 06:07:55;;;;;;;51.50;33.60;;;;;;;10.03;83.30;99308.90;85879;1283;25234;-77
2022/10/30 06:09:57;;;;;;;54.00;31.80;;;;;;;10.04;83.17;99309.22;85769;1289;99287;-78
2022/10/30 06:12:16;;;;;;;51.70;33.40;;;;;;;10.05;83.29;99302.13;85755;1291;22473;-77
2022/10/30 06:14:18;;;;;;;50.30;33.80;;;;;;;10.06;83.24;99302.81;85888;1283;22478;-78
2022/10/30 06:16:20;;;;;;;59.70;34.70;;;;;;;10.08;83.39;99304.67;85626;1291;99723;-76
2022/10/30 06:18:22;;;;;;;54.10;33.00;;;;;;;10.10;83.34;99304.09;85791;1290;24285;-77
2022/10/30 06:20:26;;;;;;;57.70;33.80;;;;;;;10.11;83.47;99302.42;85953;1283;22439;-77
2022/10/30 06:22:27;;;;;;;60.10;35.10;;;;;;;10.13;83.39;99300.24;85848;1289;98209;-77
2022/10/30 06:24:46;;;;;;;62.40;34.30;;;;;;;10.16;83.47;99299.77;85856;1290;22498;-77
2022/10/30 06:26:49;;;;;;;51.00;32.80;;;;;;;10.18;83.41;99299.17;85748;1283;25354;-78
2022/10/30 06:28:51;;;;;;;50.00;33.10;;;;;;;10.21;83.47;99300.45;85668;1293;100544;-78
2022/10/30 06:30:54;;;;;;;57.40;35.20;;;;;;;10.24;83.64;99300.15;85829;1283;25273;-78
2022/10/30 06:32:57;;;;;;;52.10;33.00;;;;;;;10.26;83.55;99300.42;85671;1291;98412;-78
2022/10/30 06:34:58;;;;;;;62.70;33.20;;;;;;;10.28;83.64;99295.78;85741;1291;23927;-78
2022/10/30 06:37:00;;;;;;;58.70;34.10;;;;;;;10.32;83.64;99298.04;85709;1291;24285;-76
2022/10/30 06:39:01;;;;;;;49.10;32.20;;;;;;;10.36;83.64;99300.02;85737;1287;98285;-77
2022/10/30 06:41:03;;;;;;;55.40;32.00;;;;;;;10.40;83.62;99299.69;85799;1291;23499;-76
2022/10/30 06:43:05;;;;;;;57.10;33.20;;;;;;;10.44;83.70;99300.95;85716;1293;22438;-77
2022/10/30 06:45:06;;;;;;;50.00;30.80;;;;;;;10.48;83.74;99300.59;85762;1284;99605;-77
2022/10/30 06:47:08;;;;;;;50.80;30.40;;;;;;;10.52;83.73;99304.95;85824;1289;25503;-76
2022/10/30 06:49:10;;;;;;;47.90;30.70;;;;;;;10.58;83.61;99305.45;85917;1283;26723;-77
2022/10/30 06:51:30;;;;;;;41.80;29.40;;;;;;;10.63;83.69;99308.21;85897;1283;98289;-76
2022/10/30 06:53:32;;;;;;;49.00;30.60;;;;;;;10.68;83.71;99306.74;85922;1284;25237;-76
2022/10/30 06:55:58;;;;;;;48.20;28.80;;;;;;;10.74;83.70;99307.56;85953;1290;23063;-78
2022/10/30 06:58:18;;;;;;;44.80;28.20;;;;;;;10.81;83.67;99307.08;85866;1283;98743;-78
2022/10/30 07:00:19;;;;;;;46.20;28.10;;;;;;;10.87;83.79;99306.45;85977;1289;22532;-78
2022/10/30 07:02:21;;;;;;;45.30;28.70;;;;;;;10.93;83.70;99304.08;86031;1290;22570;-78
2022/10/30 07:04:41;;;;;;;45.80;28.10;;;;;;;11.00;83.70;99307.13;85704;1284;99286;-78
2022/10/30 07:06:42;;;;;;;53.90;27.70;;;;;;;11.06;83.72;99308.44;86092;1290;22546;-78
2022/10/30 07:08:45;;;;;;;49.10;28.10;;;;;;;11.12;83.69;99309.20;85997;1290;22495;-78
2022/10/30 07:10:47;;;;;;;46.20;29.20;;;;;;;11.19;83.64;99306.98;85831;1283;98933;-78
2022/10/30 07:13:07;;;;;;;44.90;28.50;;;;;;;11.27;83.66;99309.45;85935;1283;23394;-78
2022/10/30 07:15:09;;;;;;;43.00;27.80;;;;;;;11.34;83.62;99308.20;85974;1291;98656;-77
2022/10/30 07:17:11;;;;;;;43.90;27.40;;;;;;;11.40;83.70;99300.38;85912;1282;22500;-77
2022/10/30 07:19:12;;;;;;;44.10;28.10;;;;;;;11.48;83.57;99297.73;85875;1283;22482;-77
2022/10/30 07:21:14;;;;;;;40.50;26.50;;;;;;;11.55;83.50;99296.35;85804;1283;98734;-77
2022/10/30 07:23:16;;;;;;;41.30;26.90;;;;;;;11.60;83.53;99297.35;85951;1296;26089;-78
2022/10/30 07:25:18;;;;;;;42.20;28.20;;;;;;;11.63;83.40;99294.55;85682;1300;22540;-80
2022/10/30 07:27:45;;;;;;;38.10;27.10;;;;;;;11.65;83.39;99291.13;85753;1291;98468;-78
2022/10/30 07:29:46;;;;;;;39.40;27.20;;;;;;;11.66;83.22;99293.86;85881;1283;23312;-77
2022/10/30 07:31:48;;;;;;;42.70;27.60;;;;;;;11.68;83.26;99295.73;86218;1289;22661;-77
2022/10/30 07:34:08;;;;;;;37.60;28.00;;;;;;;11.70;83.22;99299.87;86055;1284;98241;-77
2022/10/30 07:36:26;;;;;;;42.70;27.20;;;;;;;11.72;83.28;99303.64;85979;1287;22523;-77
2022/10/30 07:38:49;;;;;;;36.80;25.60;;;;;;;11.76;83.25;99310.84;86051;1290;22508;-77
2022/10/30 07:40:52;;;;;;;40.60;26.10;;;;;;;11.81;83.36;99311.12;85883;1290;99743;-77
2022/10/30 07:42:58;;;;;;;40.20;25.60;;;;;;;11.88;83.39;99318.89;85890;1290;221028;-78
2022/10/30 07:44:59;;;;;;;42.60;24.70;;;;;;;11.97;83.36;99324.67;85898;1283;99812;-77
2022/10/30 07:47:19;;;;;;;36.50;23.90;;;;;;;12.09;83.39;99325.33;85873;1284;22950;-77
2022/10/30 07:49:20;;;;;;;36.70;24.40;;;;;;;12.20;83.45;99323.91;85836;1289;24276;-76
2022/10/30 07:51:22;;;;;;;36.20;23.70;;;;;;;12.30;83.23;99317.42;85743;1283;98460;-77
2022/10/30 07:53:23;;;;;;;38.40;23.50;;;;;;;12.43;83.20;99322.59;85796;1283;25512;-76
2022/10/30 07:55:25;;;;;;;35.20;22.60;;;;;;;12.55;83.19;99321.27;85957;1287;22517;-75
2022/10/30 07:57:30;;;;;;;38.70;22.40;;;;;;;12.64;82.97;99321.38;85829;1290;101125;-78
2022/10/30 07:59:32;;;;;;;36.00;21.90;;;;;;;12.72;82.86;99313.39;85771;1284;22481;-77
2022/10/30 08:01:33;;;;;;;35.10;23.10;;;;;;;12.81;82.83;99309.89;85878;1283;22486;-77
2022/10/30 08:03:35;;;;;;;36.20;22.70;;;;;;;12.92;83.04;99305.98;85875;1287;98312;-77
2022/10/30 08:05:36;;;;;;;35.60;22.50;;;;;;;13.03;82.99;99306.96;85783;1296;22628;-78
2022/10/30 08:07:38;;;;;;;30.90;22.40;;;;;;;13.14;82.88;99309.04;85705;1300;22555;-77
2022/10/30 08:09:40;;;;;;;32.00;21.70;;;;;;;13.27;82.85;99312.04;85767;1296;99153;-77
2022/10/30 08:11:42;;;;;;;31.20;20.80;;;;;;;13.36;82.50;99308.42;85844;1293;25400;-78
2022/10/30 08:13:43;;;;;;;33.30;20.20;;;;;;;13.44;82.49;99309.26;85693;1285;22635;-78
2022/10/30 08:15:45;;;;;;;25.30;18.90;;;;;;;13.54;82.78;99306.07;85654;1287;98830;-77
2022/10/30 08:17:48;;;;;;;33.90;20.60;;;;;;;13.64;82.51;99308.52;85890;1287;24228;-77
2022/10/30 08:20:08;;;;;;;32.70;19.60;;;;;;;13.73;82.30;99304.13;85904;1284;24255;-79
2022/10/30 08:22:10;;;;;;;26.90;18.70;;;;;;;13.78;82.21;99303.98;85794;1289;100148;-77
2022/10/30 08:24:12;;;;;;;28.40;18.30;;;;;;;13.85;82.17;99301.31;85793;1290;22500;-77
2022/10/30 08:26:31;;;;;;;26.70;18.60;;;;;;;13.93;82.30;99299.31;85721;1289;23045;-78
2022/10/30 08:28:33;;;;;;;30.50;19.00;;;;;;;13.98;82.10;99295.11;85735;1290;99745;-78
2022/10/30 08:30:36;;;;;;;31.60;19.30;;;;;;;14.03;82.13;99295.38;85723;1290;25264;-77
2022/10/30 08:32:38;;;;;;;33.90;18.60;;;;;;;14.08;81.93;99292.27;85818;1286;22623;-78
2022/10/30 08:34:39;;;;;;;23.50;18.40;;;;;;;14.13;81.83;99290.73;85723;1283;99602;-78
2022/10/30 08:36:42;;;;;;;25.00;18.80;;;;;;;14.21;81.97;99285.70;85927;1283;25522;-77
2022/10/30 08:38:43;;;;;;;32.50;18.40;;;;;;;14.29;82.09;99286.95;85926;1286;22540;-78
2022/10/30 08:40:45;;;;;;;24.90;17.60;;;;;;;14.39;81.94;99286.20;85835;1283;99559;-78
2022/10/30 08:42:54;;;;;;;25.40;18.60;;;;;;;14.48;81.80;99288.34;85939;1281;22580;-77
2022/10/30 08:44:55;;;;;;;31.30;18.70;;;;;;;14.57;81.89;99289.07;85739;1283;100445;-77
2022/10/30 08:46:57;;;;;;;30.40;17.60;;;;;;;14.65;81.75;99290.16;85828;1288;22502;-77
2022/10/30 08:49:16;;;;;;;31.90;17.90;;;;;;;14.74;81.60;99288.04;85968;1283;22536;-76
2022/10/30 08:51:18;;;;;;;33.80;18.00;;;;;;;14.78;81.50;99282.69;85760;1289;98363;-77
2022/10/30 08:53:19;;;;;;;28.20;17.70;;;;;;;14.83;81.46;99277.62;85765;1292;24261;-77
2022/10/30 08:55:21;;;;;;;26.60;18.90;;;;;;;14.89;81.33;99272.34;85853;1283;22584;-76
2022/10/30 08:57:22;;;;;;;31.80;17.10;;;;;;;14.95;81.42;99271.41;85878;1283;99360;-77
2022/10/30 08:59:41;;;;;;;27.70;18.10;;;;;;;15.01;81.27;99274.73;86036;1290;22550;-76
2022/10/30 09:02:01;;;;;;;24.80;17.60;;;;;;;15.06;81.07;99272.15;86010;1283;23932;-78
2022/10/30 09:04:20;;;;;;;27.60;17.70;;;;;;;15.11;81.02;99270.45;86040;1284;98789;-77
2022/10/30 09:06:22;;;;;;;27.20;18.70;;;;;;;15.15;81.08;99269.11;85913;1287;22572;-77
2022/10/30 09:08:24;;;;;;;26.80;17.90;;;;;;;15.19;81.02;99267.13;85967;1285;22083;-77
2022/10/30 09:10:43;;;;;;;23.30;17.50;;;;;;;15.22;80.98;99265.67;85905;1291;99553;-77
2022/10/30 09:12:44;;;;;;;31.50;18.40;;;;;;;15.25;81.10;99266.57;86020;1289;22595;-78
2022/10/30 09:14:46;;;;;;;40.30;18.50;;;;;;;15.26;80.97;99268.41;85884;1286;22506;-77
2022/10/30 09:16:48;;;;;;;25.60;18.00;;;;;;;15.27;80.91;99269.77;85772;1287;98131;-79
2022/10/30 09:19:08;;;;;;;26.80;17.60;;;;;;;15.26;80.93;99260.09;85804;1290;22493;-78
2022/10/30 09:21:10;;;;;;;25.10;17.20;;;;;;;15.29;80.83;99258.34;85896;1282;98134;-78
2022/10/30 09:23:11;;;;;;;28.70;18.40;;;;;;;15.29;80.79;99257.10;85981;1290;22510;-78
2022/10/30 09:25:13;;;;;;;29.20;17.10;;;;;;;15.30;80.87;99261.23;85865;1287;22501;-78
2022/10/30 09:27:15;;;;;;;24.50;17.80;;;;;;;15.33;80.81;99258.42;85808;1286;98433;-78
2022/10/30 09:29:17;;;;;;;26.00;17.70;;;;;;;15.37;81.03;99254.42;85876;1286;22629;-78
2022/10/30 09:31:18;;;;;;;29.50;17.40;;;;;;;15.47;80.93;99257.73;85954;1290;22489;-77
2022/10/30 09:33:20;;;;;;;24.20;16.40;;;;;;;15.58;80.88;99256.13;85900;1297;98720;-78
2022/10/30 09:35:22;;;;;;;24.20;16.70;;;;;;;15.68;80.85;99257.23;85900;1283;24244;-78
2022/10/30 09:37:23;;;;;;;31.50;16.90;;;;;;;15.79;80.80;99253.01;86028;1291;23505;-77
2022/10/30 09:39:25;;;;;;;26.90;16.40;;;;;;;15.90;80.71;99251.08;85891;1289;98152;-77
2022/10/30 09:41:45;;;;;;;26.00;15.40;;;;;;;16.04;80.72;99248.04;85845;1290;22561;-78